createdAt,value
2023-08-11T00:01:19.439Z,100237.41
2023-08-11T00:03:46.578Z,100241.44
2023-08-11T00:06:15.086Z,100228.94
2023-08-11T00:08:42.401Z,100232.72
2023-08-11T00:11:12.345Z,100223.19
2023-08-11T00:13:39.397Z,100226.41
2023-08-11T00:16:06.537Z,100229.84
2023-08-11T00:18:33.621Z,100233.63
2023-08-11T00:21:01.105Z,100229.28
2023-08-11T00:23:28.146Z,100231.41
2023-08-11T00:25:55.152Z,100233.53
2023-08-11T00:28:22.373Z,100238.66
2023-08-11T00:30:50.521Z,100233.47
2023-08-11T00:33:17.529Z,100235.03
2023-08-11T00:35:44.554Z,100237.19
2023-08-11T00:38:11.737Z,100250.13
2023-08-11T00:40:38.757Z,100255.00
2023-08-11T00:43:05.773Z,100262.31
2023-08-11T00:45:33.002Z,100252.78
2023-08-11T00:48:00.226Z,100254.09
2023-08-11T00:50:27.406Z,100255.41
2023-08-11T00:52:55.025Z,100254.25
2023-08-11T00:55:23.015Z,100250.97
2023-08-11T00:57:50.080Z,100252.28
2023-08-11T01:00:17.472Z,100247.09
2023-08-11T01:02:46.349Z,100251.13
2023-08-11T01:05:20.265Z,100245.38
2023-08-11T01:07:58.100Z,100247.50
2023-08-11T01:10:47.587Z,100244.47
2023-08-11T01:13:19.387Z,100242.56
2023-08-11T01:15:59.732Z,100236.34
2023-08-11T01:18:29.610Z,100239.03
2023-08-11T01:21:02.847Z,100240.94
2023-08-11T01:23:32.640Z,100237.97
2023-08-11T01:26:00.139Z,100237.41
2023-08-11T01:28:28.612Z,100244.22
2023-08-11T01:30:55.830Z,100237.97
2023-08-11T01:33:22.892Z,100242.31
2023-08-11T01:35:49.905Z,100235.84
2023-08-11T01:38:16.884Z,100237.72
2023-08-11T01:40:43.930Z,100238.28
2023-08-11T01:43:13.588Z,100246.19
2023-08-11T01:45:43.957Z,100244.53
2023-08-11T01:48:12.382Z,100246.69
2023-08-11T01:50:39.608Z,100249.53
2023-08-11T01:53:06.789Z,100248.63
2023-08-11T01:55:34.398Z,100248.78
2023-08-11T01:58:01.775Z,100251.38
2023-08-11T02:00:29.619Z,100260.22
2023-08-11T02:02:59.807Z,100259.53
2023-08-11T02:05:27.867Z,100258.25
2023-08-11T02:07:56.693Z,100254.53
2023-08-11T02:10:24.572Z,100255.97
2023-08-11T02:12:52.172Z,100256.09
2023-08-11T02:15:19.907Z,100252.50
2023-08-11T02:17:47.079Z,100249.66
2023-08-11T02:20:23.236Z,100243.56
2023-08-11T02:22:52.206Z,100248.88
2023-08-11T02:25:20.471Z,100249.56
2023-08-11T02:27:48.174Z,100244.88
2023-08-11T02:30:15.787Z,100241.00
2023-08-11T02:32:46.576Z,100236.06
2023-08-11T02:35:18.134Z,100233.69
2023-08-11T02:37:45.156Z,100227.56
2023-08-11T02:40:12.436Z,100232.66
2023-08-11T02:42:57.615Z,100227.34
2023-08-11T02:45:25.247Z,100225.91
2023-08-11T02:47:52.842Z,100225.59
2023-08-11T02:50:20.062Z,100224.41
2023-08-11T02:52:47.250Z,100222.75
2023-08-11T02:55:14.242Z,100215.72
2023-08-11T02:57:41.572Z,100217.59
2023-08-11T03:00:14.423Z,100220.06
2023-08-11T03:02:46.988Z,100220.06
2023-08-11T03:05:15.992Z,100207.13
2023-08-11T03:07:44.523Z,100217.47
2023-08-11T03:10:11.629Z,100207.47
2023-08-11T03:12:41.630Z,100207.59
2023-08-11T03:15:09.902Z,100216.06
2023-08-11T03:17:38.268Z,100215.59
2023-08-11T03:20:13.678Z,100204.78
2023-08-11T03:22:43.426Z,100214.03
2023-08-11T03:25:12.686Z,100213.84
2023-08-11T03:27:42.846Z,100218.19
2023-08-11T03:30:13.448Z,100215.22
2023-08-11T03:32:42.984Z,100222.28
2023-08-11T03:35:11.166Z,100219.56
2023-08-11T03:37:39.560Z,100216.88
2023-08-11T03:40:10.771Z,100223.09
2023-08-11T03:42:37.778Z,100233.69
2023-08-11T03:45:05.828Z,100226.63
2023-08-11T03:47:34.275Z,100234.16
2023-08-11T03:50:02.866Z,100234.88
2023-08-11T03:52:29.909Z,100234.97
2023-08-11T03:54:57.670Z,100239.09
2023-08-11T03:57:24.743Z,100239.47
2023-08-11T03:59:51.844Z,100246.25
2023-08-11T04:02:19.088Z,100252.00
2023-08-11T04:04:49.674Z,100243.19
2023-08-11T04:07:17.745Z,100248.13
2023-08-11T04:09:47.472Z,100244.47
2023-08-11T04:12:14.669Z,100248.31
2023-08-11T04:14:41.683Z,100237.63
2023-08-11T04:17:08.766Z,100240.63
2023-08-11T04:19:35.776Z,100230.25
2023-08-11T04:22:03.004Z,100240.25
2023-08-11T04:24:30.796Z,100234.59
2023-08-11T04:26:57.805Z,100241.78
2023-08-11T04:29:25.235Z,100233.28
2023-08-11T04:31:53.054Z,100235.50
2023-08-11T04:34:21.189Z,100235.03
2023-08-11T04:36:48.245Z,100240.81
2023-08-11T04:39:16.651Z,100239.50
2023-08-11T04:41:44.566Z,100233.66
2023-08-11T04:44:11.627Z,100231.53
2023-08-11T04:46:38.681Z,100238.94
2023-08-11T04:49:05.943Z,100233.31
2023-08-11T04:51:33.371Z,100236.00
2023-08-11T04:54:04.179Z,100224.13
2023-08-11T04:56:31.710Z,100236.84
2023-08-11T04:58:58.752Z,100245.75
2023-08-11T05:01:25.832Z,100248.00
2023-08-11T05:03:54.052Z,100251.78
2023-08-11T05:06:21.116Z,100251.28
2023-08-11T05:08:48.686Z,100252.13
2023-08-11T05:11:24.286Z,100259.41
2023-08-11T05:13:51.295Z,100259.41
2023-08-11T05:16:18.437Z,100253.75
2023-08-11T05:18:45.457Z,100256.22
2023-08-11T05:21:16.297Z,100260.81
2023-08-11T05:23:43.284Z,100268.72
2023-08-11T05:26:10.421Z,100271.19
2023-08-11T05:28:37.498Z,100279.03
2023-08-11T05:31:05.613Z,100276.94
2023-08-11T05:33:33.162Z,100277.53
2023-08-11T05:36:00.191Z,100280.81
2023-08-11T05:38:27.451Z,100281.41
2023-08-11T05:40:54.420Z,100282.03
2023-08-11T05:43:21.519Z,100282.84
2023-08-11T05:45:48.557Z,100282.59
2023-08-11T05:48:15.635Z,100291.28
2023-08-11T05:50:46.265Z,100290.22
2023-08-11T05:53:13.595Z,100289.19
2023-08-11T05:55:40.903Z,100287.06
2023-08-11T05:58:08.120Z,100279.53
2023-08-11T06:00:36.063Z,100289.44
2023-08-11T06:03:03.566Z,100284.97
2023-08-11T06:05:30.631Z,100271.78
2023-08-11T06:08:06.046Z,100280.03
2023-08-11T06:10:34.658Z,100280.28
2023-08-11T06:13:01.971Z,100274.28
2023-08-11T06:15:28.990Z,100277.00
2023-08-11T06:17:55.988Z,100281.22
2023-08-11T06:20:34.350Z,100280.03
2023-08-11T06:23:02.026Z,100280.25
2023-08-11T06:25:29.038Z,100281.19
2023-08-11T06:27:56.064Z,100279.16
2023-08-11T06:30:23.206Z,100284.44
2023-08-11T06:32:50.377Z,100285.94
2023-08-11T06:35:18.452Z,100283.69
2023-08-11T06:37:45.647Z,100280.56
2023-08-11T06:40:14.551Z,100281.28
2023-08-11T06:42:41.577Z,100283.03
2023-08-11T06:45:11.069Z,100283.63
2023-08-11T06:47:38.477Z,100292.34
2023-08-11T06:50:06.139Z,100293.72
2023-08-11T06:52:33.176Z,100297.03
2023-08-11T06:55:00.245Z,100295.97
2023-08-11T06:57:27.280Z,100299.00
2023-08-11T06:59:54.365Z,100292.84
2023-08-11T07:02:21.516Z,100293.16
2023-08-11T07:04:48.997Z,100304.38
2023-08-11T07:07:16.044Z,100296.34
2023-08-11T07:09:43.065Z,100293.69
2023-08-11T07:12:10.195Z,100295.78
2023-08-11T07:14:37.205Z,100297.81
2023-08-11T07:17:04.744Z,100290.44
2023-08-11T07:19:32.099Z,100287.28
2023-08-11T07:21:59.098Z,100292.66
2023-08-11T07:24:26.162Z,100293.41
2023-08-11T07:26:53.222Z,100295.22
2023-08-11T07:29:20.232Z,100298.66
2023-08-11T07:31:47.433Z,100301.47
2023-08-11T07:34:14.474Z,100308.13
2023-08-11T07:36:41.825Z,100313.13
2023-08-11T07:39:22.227Z,100316.50
2023-08-11T07:41:53.928Z,100315.81
2023-08-11T07:44:21.129Z,100317.25
2023-08-11T07:46:48.225Z,100323.31
2023-08-11T07:49:15.287Z,100326.94
2023-08-11T07:51:42.647Z,100333.31
2023-08-11T07:54:10.679Z,100329.31
2023-08-11T07:56:38.117Z,100331.31
2023-08-11T07:59:05.308Z,100337.97
2023-08-11T08:01:32.975Z,100348.38
2023-08-11T08:04:00.110Z,100343.00
2023-08-11T08:06:27.117Z,100337.09
2023-08-11T08:08:54.138Z,100338.28
2023-08-11T08:11:21.722Z,100338.88
2023-08-11T08:13:48.880Z,100340.06
2023-08-11T08:16:16.108Z,100343.94
2023-08-11T08:18:43.254Z,100342.63
2023-08-11T08:21:10.278Z,100342.16
2023-08-11T08:23:37.352Z,100340.88
2023-08-11T08:26:04.428Z,100340.66
2023-08-11T08:28:34.353Z,100336.28
2023-08-11T08:31:01.623Z,100336.59
2023-08-11T08:33:28.669Z,100331.72
2023-08-11T08:35:55.744Z,100331.78
2023-08-11T08:38:22.753Z,100328.28
2023-08-11T08:40:50.107Z,100331.00
2023-08-11T08:43:17.779Z,100324.78
2023-08-11T08:45:46.056Z,100332.41
2023-08-11T08:48:26.881Z,100324.25
2023-08-11T08:50:54.353Z,100322.09
2023-08-11T08:53:21.982Z,100323.78
2023-08-11T08:55:49.195Z,100328.72
2023-08-11T08:58:17.126Z,100317.31
2023-08-11T09:00:44.378Z,100318.44
2023-08-11T09:03:12.561Z,100324.50
2023-08-11T09:05:39.702Z,100325.63
2023-08-11T09:08:07.510Z,100327.28
2023-08-11T09:10:37.571Z,100317.47
2023-08-11T09:13:05.119Z,100328.94
2023-08-11T09:15:32.236Z,100317.47
2023-08-11T09:18:00.831Z,100324.03
2023-08-11T09:20:28.187Z,100325.69
2023-08-11T09:22:55.173Z,100324.59
2023-08-11T09:25:22.313Z,100316.16
2023-08-11T09:27:52.317Z,100316.69
2023-08-11T09:30:19.473Z,100321.34
2023-08-11T09:32:50.509Z,100312.06
2023-08-11T09:35:24.856Z,100320.28
2023-08-11T09:37:56.423Z,100321.91
2023-08-11T09:40:24.083Z,100313.97
2023-08-11T09:42:55.009Z,100321.34
2023-08-11T09:45:23.659Z,100317.78
2023-08-11T09:47:51.260Z,100316.94
2023-08-11T09:50:18.558Z,100314.72
2023-08-11T09:52:46.623Z,100312.28
2023-08-11T09:55:16.292Z,100320.47
2023-08-11T09:57:44.949Z,100312.00
2023-08-11T10:00:13.755Z,100320.16
2023-08-11T10:02:54.594Z,100313.31
2023-08-11T10:05:22.134Z,100311.63
2023-08-11T10:07:51.546Z,100321.69
2023-08-11T10:10:20.779Z,100309.91
2023-08-11T10:13:10.145Z,100309.59
2023-08-11T10:15:39.418Z,100313.63
2023-08-11T10:18:07.877Z,100312.81
2023-08-11T10:20:35.263Z,100309.50
2023-08-11T10:23:06.539Z,100316.00
2023-08-11T10:25:33.945Z,100305.53
2023-08-11T10:28:02.209Z,100307.66
2023-08-11T10:30:29.659Z,100309.22
2023-08-11T10:33:10.310Z,100307.28
2023-08-11T10:35:46.707Z,100312.41
2023-08-11T10:38:13.968Z,100302.50
2023-08-11T10:40:41.433Z,100300.56
2023-08-11T10:43:08.458Z,100299.19
2023-08-11T10:45:37.354Z,100305.19
2023-08-11T10:48:09.696Z,100303.75
2023-08-11T10:50:39.057Z,100303.13
2023-08-11T10:53:20.701Z,100292.38
2023-08-11T10:56:04.292Z,100296.63
2023-08-11T10:58:32.220Z,100286.72
2023-08-11T11:01:00.085Z,100294.94
2023-08-11T11:03:27.498Z,100289.34
2023-08-11T11:05:54.815Z,100288.16
2023-08-11T11:08:21.864Z,100288.56
2023-08-11T11:10:50.832Z,100286.25
2023-08-11T11:13:18.483Z,100283.69
2023-08-11T11:15:46.077Z,100283.84
2023-08-11T11:18:13.551Z,100273.84
2023-08-11T11:20:40.629Z,100267.47
2023-08-11T11:23:07.690Z,100265.47
2023-08-11T11:25:34.831Z,100259.25
2023-08-11T11:28:01.853Z,100259.97
2023-08-11T11:30:29.024Z,100256.88
2023-08-11T11:32:56.084Z,100251.53
2023-08-11T11:35:26.167Z,100247.81
2023-08-11T11:37:55.007Z,100248.78
2023-08-11T11:40:22.066Z,100245.13
2023-08-11T11:42:49.114Z,100251.41
2023-08-11T11:45:16.296Z,100240.66
2023-08-11T11:47:44.164Z,100250.44
2023-08-11T11:50:11.485Z,100249.34
2023-08-11T11:52:39.045Z,100245.47
2023-08-11T11:55:07.358Z,100243.38
2023-08-11T11:57:34.960Z,100248.19
2023-08-11T12:00:04.609Z,100246.25
2023-08-11T12:02:41.396Z,100246.00
2023-08-11T12:05:09.499Z,100240.59
2023-08-11T12:07:37.795Z,100236.75
2023-08-11T12:10:06.889Z,100236.34
2023-08-11T12:12:34.329Z,100232.88
2023-08-11T12:15:08.928Z,100235.13
2023-08-11T12:17:37.035Z,100230.88
2023-08-11T12:20:11.254Z,100229.31
2023-08-11T12:22:38.276Z,100229.75
2023-08-11T12:25:05.567Z,100240.22
2023-08-11T12:27:32.661Z,100236.84
2023-08-11T12:29:59.673Z,100244.09
2023-08-11T12:32:26.793Z,100240.59
2023-08-11T12:34:53.856Z,100230.91
2023-08-11T12:37:20.929Z,100240.38
2023-08-11T12:39:47.939Z,100238.13
2023-08-11T12:42:15.038Z,100247.59
2023-08-11T12:44:42.546Z,100240.34
2023-08-11T12:47:09.684Z,100228.31
2023-08-11T12:49:36.703Z,100233.34
2023-08-11T12:52:03.814Z,100229.44
2023-08-11T12:54:30.839Z,100230.97
2023-08-11T12:56:57.875Z,100234.25
2023-08-11T12:59:25.877Z,100228.66
2023-08-11T13:01:52.994Z,100223.53
2023-08-11T13:04:20.027Z,100228.31
2023-08-11T13:06:47.041Z,100223.56
2023-08-11T13:09:15.689Z,100224.97
2023-08-11T13:11:44.016Z,100222.75
2023-08-11T13:14:11.454Z,100223.06
2023-08-11T13:16:38.996Z,100224.09
2023-08-11T13:19:06.471Z,100219.09
2023-08-11T13:21:34.014Z,100207.91
2023-08-11T13:24:01.588Z,100217.06
2023-08-11T13:26:28.822Z,100213.69
2023-08-11T13:28:58.370Z,100218.94
2023-08-11T13:31:25.981Z,100208.59
2023-08-11T13:33:53.143Z,100204.44
2023-08-11T13:36:20.215Z,100212.09
2023-08-11T13:38:47.812Z,100209.66
2023-08-11T13:41:14.830Z,100207.84
2023-08-11T13:43:41.836Z,100202.47
2023-08-11T13:46:08.916Z,100194.06
2023-08-11T13:48:35.970Z,100198.91
2023-08-11T13:51:04.500Z,100192.59
2023-08-11T13:53:31.740Z,100195.38
2023-08-11T13:55:58.787Z,100196.06
2023-08-11T13:58:25.868Z,100195.41
2023-08-11T14:00:53.008Z,100186.00
2023-08-11T14:03:20.054Z,100187.78
2023-08-11T14:05:47.095Z,100178.53
2023-08-11T14:08:14.182Z,100186.69
2023-08-11T14:10:41.172Z,100182.00
2023-08-11T14:13:11.335Z,100173.56
2023-08-11T14:15:39.613Z,100186.72
2023-08-11T14:18:07.464Z,100175.69
2023-08-11T14:20:34.782Z,100161.25
2023-08-11T14:23:01.956Z,100169.19
2023-08-11T14:25:28.974Z,100161.25
2023-08-11T14:27:56.055Z,100167.91
2023-08-11T14:30:23.177Z,100156.88
2023-08-11T14:32:50.321Z,100157.84
2023-08-11T14:35:17.493Z,100162.22
2023-08-11T14:37:44.540Z,100155.59
2023-08-11T14:40:12.153Z,100155.25
2023-08-11T14:42:39.209Z,100150.50
2023-08-11T14:45:07.214Z,100151.75
2023-08-11T14:47:34.277Z,100145.91
2023-08-11T14:50:01.301Z,100143.47
2023-08-11T14:52:28.425Z,100142.13
2023-08-11T14:54:55.414Z,100136.91
2023-08-11T14:57:24.507Z,100128.50
2023-08-11T14:59:51.564Z,100126.41
2023-08-11T15:02:18.649Z,100126.75
2023-08-11T15:04:48.627Z,100131.63
2023-08-11T15:07:15.668Z,100127.72
2023-08-11T15:09:42.802Z,100128.72
2023-08-11T15:12:10.423Z,100120.50
2023-08-11T15:14:37.727Z,100119.06
2023-08-11T15:17:04.909Z,100114.03
2023-08-11T15:19:32.012Z,100120.69
2023-08-11T15:21:59.501Z,100112.22
2023-08-11T15:24:26.518Z,100120.13
2023-08-11T15:26:53.731Z,100115.72
2023-08-11T15:29:20.775Z,100124.50
2023-08-11T15:31:48.048Z,100122.72
2023-08-11T15:34:15.108Z,100115.09
2023-08-11T15:36:42.424Z,100114.59
2023-08-11T15:39:09.569Z,100118.50
2023-08-11T15:41:36.623Z,100105.84
2023-08-11T15:44:03.961Z,100113.13
2023-08-11T15:46:31.124Z,100106.81
2023-08-11T15:48:59.024Z,100116.69
2023-08-11T15:51:26.083Z,100110.38
2023-08-11T15:53:53.097Z,100098.38
2023-08-11T15:56:20.145Z,100099.66
2023-08-11T15:58:47.534Z,100104.34
2023-08-11T16:01:14.763Z,100092.63
2023-08-11T16:03:41.930Z,100100.25
2023-08-11T16:06:09.055Z,100092.81
2023-08-11T16:08:38.749Z,100094.91
2023-08-11T16:11:05.979Z,100091.00
2023-08-11T16:13:33.008Z,100084.66
2023-08-11T16:16:00.203Z,100093.25
2023-08-11T16:18:28.758Z,100089.91
2023-08-11T16:20:58.844Z,100090.34
2023-08-11T16:23:25.968Z,100091.13
2023-08-11T16:25:53.000Z,100087.97
2023-08-11T16:28:20.037Z,100081.84
2023-08-11T16:30:48.533Z,100087.84
2023-08-11T16:33:15.580Z,100079.22
2023-08-11T16:35:42.598Z,100081.84
2023-08-11T16:38:09.613Z,100077.03
2023-08-11T16:40:36.612Z,100077.88
2023-08-11T16:43:04.332Z,100074.66
2023-08-11T16:45:32.275Z,100074.94
2023-08-11T16:48:00.895Z,100064.75
2023-08-11T16:50:27.915Z,100062.78
2023-08-11T16:52:55.019Z,100070.28
2023-08-11T16:55:22.902Z,100063.31
2023-08-11T16:57:50.964Z,100068.09
2023-08-11T17:00:18.303Z,100068.91
2023-08-11T17:02:45.554Z,100068.91
2023-08-11T17:05:13.136Z,100064.19
2023-08-11T17:07:41.676Z,100062.25
2023-08-11T17:10:09.401Z,100059.03
2023-08-11T17:12:36.716Z,100060.00
2023-08-11T17:15:04.657Z,100051.91
2023-08-11T17:17:31.734Z,100057.75
2023-08-11T17:19:58.956Z,100056.94
2023-08-11T17:22:26.117Z,100057.56
2023-08-11T17:24:53.113Z,100052.72
2023-08-11T17:27:20.101Z,100054.34
2023-08-11T17:29:47.962Z,100058.22
2023-08-11T17:32:14.963Z,100050.91
2023-08-11T17:34:56.481Z,100056.41
2023-08-11T17:37:25.270Z,100062.25
2023-08-11T17:39:52.668Z,100070.53
2023-08-11T17:42:19.960Z,100060.75
2023-08-11T17:44:47.003Z,100061.34
2023-08-11T17:47:14.193Z,100049.84
2023-08-11T17:49:41.300Z,100052.25
2023-08-11T17:52:08.572Z,100055.75
2023-08-11T17:54:38.613Z,100048.41
2023-08-11T17:57:05.628Z,100052.31
2023-08-11T17:59:32.710Z,100056.84
2023-08-11T18:01:59.831Z,100052.59
2023-08-11T18:04:27.098Z,100049.63
2023-08-11T18:06:54.198Z,100053.16
2023-08-11T18:09:21.198Z,100052.09
2023-08-11T18:11:51.725Z,100053.78
2023-08-11T18:14:22.741Z,100048.81
2023-08-11T18:16:49.974Z,100046.59
2023-08-11T18:19:17.022Z,100053.25
2023-08-11T18:21:44.104Z,100051.84
2023-08-11T18:24:11.181Z,100047.69
2023-08-11T18:26:38.216Z,100052.28
2023-08-11T18:29:05.437Z,100053.56
2023-08-11T18:31:32.494Z,100053.56
2023-08-11T18:34:01.242Z,100050.22
2023-08-11T18:36:28.658Z,100046.94
2023-08-11T18:38:55.729Z,100055.66
2023-08-11T18:41:22.777Z,100044.63
2023-08-11T18:43:49.816Z,100047.66
2023-08-11T18:46:16.878Z,100051.47
2023-08-11T18:48:44.052Z,100052.22
2023-08-11T18:51:11.595Z,100055.09
2023-08-11T18:53:38.669Z,100047.03
2023-08-11T18:56:05.694Z,100052.06
2023-08-11T18:58:32.905Z,100055.47
2023-08-11T19:01:00.129Z,100052.81
2023-08-11T19:03:27.383Z,100056.72
2023-08-11T19:05:57.877Z,100058.41
2023-08-11T19:08:24.935Z,100052.47
2023-08-11T19:10:52.085Z,100052.53
2023-08-11T19:13:19.193Z,100055.38
2023-08-11T19:15:50.375Z,100059.50
2023-08-11T19:18:18.002Z,100054.59
2023-08-11T19:20:47.673Z,100059.81
2023-08-11T19:23:14.926Z,100063.16
2023-08-11T19:25:42.211Z,100057.44
2023-08-11T19:28:11.892Z,100057.22
2023-08-11T19:30:39.000Z,100055.88
2023-08-11T19:33:06.124Z,100064.38
2023-08-11T19:35:33.179Z,100059.50
2023-08-11T19:38:00.444Z,100055.72
2023-08-11T19:40:27.513Z,100057.41
2023-08-11T19:42:55.062Z,100061.22
2023-08-11T19:45:22.186Z,100057.16
2023-08-11T19:47:49.202Z,100058.56
2023-08-11T19:50:16.318Z,100055.59
2023-08-11T19:52:43.382Z,100059.75
2023-08-11T19:55:10.891Z,100061.13
2023-08-11T19:57:37.896Z,100060.91
2023-08-11T20:00:05.634Z,100061.47
2023-08-11T20:02:41.384Z,100059.28
2023-08-11T20:05:08.794Z,100051.88
2023-08-11T20:07:35.829Z,100056.22
2023-08-11T20:10:03.002Z,100052.97
2023-08-11T20:12:30.066Z,100058.47
2023-08-11T20:14:57.243Z,100057.06
2023-08-11T20:17:24.298Z,100052.38
2023-08-11T20:19:51.312Z,100057.06
2023-08-11T20:22:18.465Z,100046.66
2023-08-11T20:24:45.639Z,100055.97
2023-08-11T20:27:13.090Z,100054.13
2023-08-11T20:29:40.361Z,100043.75
2023-08-11T20:32:07.589Z,100047.31
2023-08-11T20:34:34.684Z,100046.50
2023-08-11T20:37:01.790Z,100043.53
2023-08-11T20:39:28.821Z,100042.44
2023-08-11T20:41:57.001Z,100042.47
2023-08-11T20:44:24.834Z,100046.38
2023-08-11T20:46:52.394Z,100039.88
2023-08-11T20:49:19.426Z,100039.59
2023-08-11T20:51:46.523Z,100040.50
2023-08-11T20:54:13.647Z,100036.69
2023-08-11T20:56:40.707Z,100033.44
2023-08-11T20:59:07.808Z,100034.81
2023-08-11T21:01:34.883Z,100037.03
2023-08-11T21:04:01.981Z,100032.94
2023-08-11T21:06:31.585Z,100032.09
2023-08-11T21:08:59.702Z,100032.69
2023-08-11T21:11:26.962Z,100035.72
2023-08-11T21:13:56.017Z,100031.38
2023-08-11T21:16:23.432Z,100033.53
2023-08-11T21:18:51.451Z,100036.56
2023-08-11T21:21:18.506Z,100039.91
2023-08-11T21:23:48.798Z,100038.00
2023-08-11T21:26:15.955Z,100035.31
2023-08-11T21:28:43.006Z,100036.72
2023-08-11T21:31:18.225Z,100039.72
2023-08-11T21:34:01.858Z,100034.81
2023-08-11T21:36:28.896Z,100033.72
2023-08-11T21:38:55.963Z,100034.00
2023-08-11T21:41:23.187Z,100034.00
2023-08-11T21:43:50.949Z,100030.97
2023-08-11T21:46:17.973Z,100032.59
2023-08-11T21:48:45.128Z,100030.16
2023-08-11T21:51:12.307Z,100026.63
2023-08-11T21:53:39.369Z,100026.88
2023-08-11T21:56:08.458Z,100020.59
2023-08-11T21:58:36.171Z,100026.06
2023-08-11T22:01:03.434Z,100026.06
2023-08-11T22:03:30.696Z,100037.00
2023-08-11T22:05:59.049Z,100021.16
2023-08-11T22:08:26.106Z,100020.09
2023-08-11T22:10:53.174Z,100019.03
2023-08-11T22:13:20.239Z,100021.25
2023-08-11T22:15:48.305Z,100018.78
2023-08-11T22:18:15.421Z,100020.16
2023-08-11T22:20:43.760Z,100026.22
2023-08-11T22:23:10.769Z,100019.66
2023-08-11T22:25:37.781Z,100018.06
2023-08-11T22:28:05.503Z,100024.63
2023-08-11T22:30:33.326Z,100022.47
2023-08-11T22:33:00.508Z,100025.25
2023-08-11T22:35:27.671Z,100024.72
2023-08-11T22:37:54.678Z,100022.31
2023-08-11T22:40:21.685Z,100020.13
2023-08-11T22:42:48.757Z,100019.59
2023-08-11T22:45:16.319Z,100014.44
2023-08-11T22:47:43.679Z,100018.53
2023-08-11T22:50:10.813Z,100013.63
2023-08-11T22:52:37.875Z,100016.34
2023-08-11T22:55:05.532Z,100012.00
2023-08-11T22:57:32.620Z,100010.38
2023-08-11T22:59:59.815Z,100004.63
2023-08-11T23:02:26.891Z,100008.75
2023-08-11T23:04:55.237Z,100010.13
2023-08-11T23:07:26.147Z,99995.69
2023-08-11T23:09:54.290Z,99993.75
2023-08-11T23:12:21.506Z,99991.03
2023-08-11T23:14:49.335Z,99985.81
2023-08-11T23:17:16.371Z,99994.56
2023-08-11T23:19:43.398Z,99992.94
2023-08-11T23:22:10.442Z,99982.28
2023-08-11T23:24:37.609Z,99978.44
2023-08-11T23:27:05.002Z,99976.81
2023-08-11T23:29:32.232Z,99982.84
2023-08-11T23:32:00.566Z,99969.44
2023-08-11T23:34:27.620Z,99971.09
2023-08-11T23:36:54.633Z,99976.56
2023-08-11T23:39:22.411Z,99977.38
2023-08-11T23:41:49.455Z,99971.91
2023-08-11T23:44:16.471Z,99964.81
2023-08-11T23:46:43.549Z,99970.25
2023-08-11T23:49:10.649Z,99968.63
2023-08-11T23:51:37.711Z,99967.00
2023-08-11T23:54:05.031Z,99962.94
2023-08-11T23:56:32.086Z,99960.50
2023-08-11T23:58:59.187Z,99959.66
